Time;durP1;ratioP1;P1;durP2;ratioP2;P2;SDS_P1;SDS_P2;PMS_P1;PMS_P2;Temp;Humidity;BMP_temperature;BMP_pressure;BME280_temperature;BME280_humidity;BME280_pressure;Samples;Min_cycle;Max_cycle;Signal;HPM_P1;HPM_P2
2023/05/01 00:03:22;;;;;;;12.48;5.47;;;;;;;;;;10091307;23;20030;-90
2023/05/01 00:07:28;;;;;;;14.52;4.95;;;;;;;;;;10066267;23;20026;-89
2023/05/01 00:11:31;;;;;;;14.35;6.28;;;;;;;;;;10107712;23;20093;-92
2023/05/01 00:15:35;;;;;;;12.90;5.75;;;;;;;;;;10091311;23;20033;-89
2023/05/01 00:19:38;;;;;;;11.00;5.22;;;;;;;;;;10091220;23;20023;-90
2023/05/01 00:23:41;;;;;;;12.38;6.32;;;;;;;;;;10090956;23;20386;-90
2023/05/01 00:27:44;;;;;;;15.55;7.28;;;;;;;;;;10093049;23;20022;-90
2023/05/01 00:31:49;;;;;;;13.02;6.45;;;;;;;;;;10094888;23;20034;-88
2023/05/01 00:35:52;;;;;;;17.95;6.82;;;;;;;;;;10090873;23;20045;-88
2023/05/01 00:39:55;;;;;;;15.23;6.38;;;;;;;;;;10091061;23;20037;-89
2023/05/01 00:43:58;;;;;;;13.43;6.60;;;;;;;;;;10092035;23;20022;-90
2023/05/01 00:48:04;;;;;;;12.65;5.68;;;;;;;;;;10092974;23;20046;-89
2023/05/01 00:52:08;;;;;;;13.73;6.57;;;;;;;;;;10108576;23;20447;-89
2023/05/01 00:56:11;;;;;;;13.45;5.53;;;;;;;;;;10092556;23;20038;-90
2023/05/01 01:00:16;;;;;;;14.75;6.07;;;;;;;;;;10093117;23;20056;-90
2023/05/01 01:04:20;;;;;;;14.73;5.45;;;;;;;;;;10093010;23;20659;-89
2023/05/01 01:08:30;;;;;;;14.02;6.38;;;;;;;;;;10068612;23;20035;-89
2023/05/01 01:12:40;;;;;;;14.25;6.43;;;;;;;;;;10110693;23;20481;-89
2023/05/01 01:16:53;;;;;;;12.48;6.43;;;;;;;;;;10110063;23;20522;-90
2023/05/01 01:21:05;;;;;;;17.30;6.07;;;;;;;;;;10109870;23;20022;-89
2023/05/01 01:25:41;;;;;;;19.77;6.97;;;;;;;;;;10109588;23;20510;-89
2023/05/01 01:30:07;;;;;;;17.23;7.72;;;;;;;;;;10068307;23;20467;-88
2023/05/01 01:34:14;;;;;;;17.98;7.30;;;;;;;;;;10109000;23;20432;-89
2023/05/01 01:38:22;;;;;;;16.95;7.90;;;;;;;;;;10109326;23;20025;-88
2023/05/01 01:42:28;;;;;;;21.17;10.70;;;;;;;;;;10109177;23;20018;-88
2023/05/01 01:46:36;;;;;;;16.08;6.70;;;;;;;;;;10109080;23;20503;-89
2023/05/01 01:50:41;;;;;;;19.98;7.80;;;;;;;;;;10093313;23;20038;-89
2023/05/01 01:54:51;;;;;;;17.60;7.55;;;;;;;;;;10109490;23;20093;-89
2023/05/01 01:58:55;;;;;;;24.17;7.47;;;;;;;;;;10109302;23;20503;-89
2023/05/01 02:03:00;;;;;;;13.43;6.65;;;;;;;;;;10092568;23;20109;-89
2023/05/01 02:07:07;;;;;;;25.05;7.22;;;;;;;;;;10092831;23;20018;-87
2023/05/01 02:11:13;;;;;;;19.38;6.65;;;;;;;;;;10108752;23;20081;-88
2023/05/01 02:15:18;;;;;;;18.35;7.75;;;;;;;;;;10108215;23;20511;-89
2023/05/01 02:19:21;;;;;;;16.25;7.20;;;;;;;;;;10092674;23;20022;-88
2023/05/01 02:23:27;;;;;;;17.05;8.23;;;;;;;;;;10092493;23;20093;-89
2023/05/01 02:27:35;;;;;;;16.85;7.60;;;;;;;;;;10092291;23;20022;-90
2023/05/01 02:31:37;;;;;;;16.23;7.57;;;;;;;;;;10108214;23;20351;-88
2023/05/01 02:35:40;;;;;;;17.30;7.35;;;;;;;;;;10092505;23;20364;-89
2023/05/01 02:39:44;;;;;;;22.73;10.70;;;;;;;;;;10067632;23;20019;-89
2023/05/01 02:43:52;;;;;;;18.70;8.10;;;;;;;;;;10092245;23;20097;-89
2023/05/01 02:47:58;;;;;;;22.77;8.82;;;;;;;;;;10109312;23;20029;-88
2023/05/01 02:52:03;;;;;;;21.70;7.75;;;;;;;;;;10107970;23;20018;-89
2023/05/01 02:56:08;;;;;;;17.98;8.13;;;;;;;;;;10091485;23;20032;-89
2023/05/01 03:00:13;;;;;;;18.30;7.93;;;;;;;;;;10105411;23;20106;-88
2023/05/01 03:04:16;;;;;;;20.67;9.00;;;;;;;;;;10107849;23;20455;-88
2023/05/01 03:08:18;;;;;;;17.95;8.75;;;;;;;;;;10065938;23;20073;-88
2023/05/01 03:12:23;;;;;;;19.88;8.93;;;;;;;;;;10091661;23;20097;-88
2023/05/01 03:16:25;;;;;;;55.63;23.15;;;;;;;;;;10091865;23;20057;-88
2023/05/01 03:20:28;;;;;;;29.65;12.65;;;;;;;;;;10090882;23;20030;-89
2023/05/01 03:24:31;;;;;;;19.92;10.55;;;;;;;;;;10091092;23;20101;-88
2023/05/01 03:28:36;;;;;;;19.55;8.35;;;;;;;;;;10091585;23;20022;-88
2023/05/01 03:32:39;;;;;;;21.73;8.82;;;;;;;;;;10091390;23;20023;-89
2023/05/01 03:36:42;;;;;;;21.45;10.07;;;;;;;;;;10092063;23;20724;-88
2023/05/01 03:40:45;;;;;;;23.67;9.95;;;;;;;;;;10090872;23;20097;-89
2023/05/01 03:44:49;;;;;;;18.75;8.25;;;;;;;;;;10090771;23;20029;-89
2023/05/01 03:48:52;;;;;;;22.15;8.38;;;;;;;;;;10090687;23;20093;-88
2023/05/01 03:52:55;;;;;;;18.48;7.75;;;;;;;;;;10091734;23;20018;-89
2023/05/01 03:56:59;;;;;;;18.17;7.05;;;;;;;;;;10090846;23;20025;-88
2023/05/01 04:01:03;;;;;;;16.08;8.07;;;;;;;;;;10091011;23;20068;-88
2023/05/01 04:05:07;;;;;;;18.65;7.30;;;;;;;;;;10091248;23;20042;-90
2023/05/01 04:09:10;;;;;;;17.15;8.60;;;;;;;;;;10090815;23;20102;-88
2023/05/01 04:13:13;;;;;;;12.70;7.32;;;;;;;;;;10090810;23;20443;-87
2023/05/01 04:17:17;;;;;;;12.85;6.07;;;;;;;;;;10090873;23;20497;-87
2023/05/01 04:21:20;;;;;;;15.68;6.85;;;;;;;;;;10090577;23;20023;-87
2023/05/01 04:25:23;;;;;;;20.92;8.32;;;;;;;;;;10090726;23;20333;-89
2023/05/01 04:29:26;;;;;;;13.25;5.90;;;;;;;;;;10090428;23;20503;-87
2023/05/01 04:33:32;;;;;;;15.68;6.65;;;;;;;;;;10089798;23;20023;-88
2023/05/01 04:37:35;;;;;;;16.77;6.85;;;;;;;;;;10090625;23;20018;-88
2023/05/01 04:41:38;;;;;;;21.23;10.85;;;;;;;;;;10092888;23;20030;-88
2023/05/01 04:45:41;;;;;;;17.15;7.97;;;;;;;;;;10093925;23;20029;-90
2023/05/01 04:49:46;;;;;;;28.27;14.50;;;;;;;;;;10068599;23;20022;-88
2023/05/01 04:53:49;;;;;;;13.93;7.00;;;;;;;;;;10094233;23;20029;-89
2023/05/01 04:57:52;;;;;;;11.98;6.45;;;;;;;;;;10093707;23;20444;-88
2023/05/01 05:01:58;;;;;;;14.90;6.57;;;;;;;;;;10093180;23;20177;-89
2023/05/01 05:06:03;;;;;;;14.65;6.55;;;;;;;;;;10067957;23;20027;-90
2023/05/01 05:10:07;;;;;;;12.32;6.15;;;;;;;;;;10094082;23;20414;-89
2023/05/01 05:14:10;;;;;;;13.80;6.80;;;;;;;;;;10093560;23;20030;-89
2023/05/01 05:18:13;;;;;;;12.70;7.25;;;;;;;;;;10093536;23;20020;-90
2023/05/01 05:22:20;;;;;;;11.80;7.53;;;;;;;;;;10093221;23;20057;-90
2023/05/01 05:26:25;;;;;;;12.52;6.88;;;;;;;;;;10109173;23;20320;-89
2023/05/01 05:30:28;;;;;;;12.82;6.70;;;;;;;;;;10093045;23;20026;-89
2023/05/01 05:34:31;;;;;;;11.32;6.30;;;;;;;;;;10092776;23;20018;-90
2023/05/01 05:38:39;;;;;;;11.18;5.53;;;;;;;;;;10092980;23;20022;-91
2023/05/01 05:42:42;;;;;;;10.63;6.03;;;;;;;;;;10108917;23;20041;-90
2023/05/01 05:46:45;;;;;;;10.07;5.40;;;;;;;;;;10092530;23;20421;-90
2023/05/01 05:50:51;;;;;;;11.45;4.63;;;;;;;;;;10092721;23;20098;-90
2023/05/01 05:54:56;;;;;;;13.68;5.85;;;;;;;;;;10066969;23;20027;-91
2023/05/01 05:59:02;;;;;;;8.52;4.88;;;;;;;;;;10089710;23;20026;-91
2023/05/01 06:03:05;;;;;;;8.95;4.75;;;;;;;;;;10081047;23;20034;-90
2023/05/01 06:07:08;;;;;;;11.30;4.57;;;;;;;;;;10089740;23;20027;-89
2023/05/01 06:11:13;;;;;;;7.18;3.75;;;;;;;;;;10091330;23;20026;-89
2023/05/01 06:15:17;;;;;;;7.25;3.80;;;;;;;;;;10091763;23;20022;-90
2023/05/01 06:19:22;;;;;;;9.88;3.22;;;;;;;;;;10090772;23;20033;-90
2023/05/01 06:23:27;;;;;;;6.43;3.50;;;;;;;;;;10107754;23;20018;-92
2023/05/01 06:27:31;;;;;;;8.13;3.20;;;;;;;;;;10091562;23;20018;-89
2023/05/01 06:31:34;;;;;;;7.40;3.05;;;;;;;;;;10092032;23;20452;-91
2023/05/01 06:35:39;;;;;;;7.70;3.22;;;;;;;;;;10090575;23;20097;-90
2023/05/01 06:39:42;;;;;;;6.70;3.20;;;;;;;;;;10090559;23;20025;-90
2023/05/01 06:43:46;;;;;;;7.97;2.65;;;;;;;;;;10092152;23;20081;-89
2023/05/01 06:47:49;;;;;;;7.93;2.42;;;;;;;;;;10091087;23;20194;-90
2023/05/01 06:51:52;;;;;;;5.32;2.40;;;;;;;;;;10091571;23;20029;-89
2023/05/01 06:55:55;;;;;;;4.95;2.40;;;;;;;;;;10092054;23;20037;-87
2023/05/01 07:00:00;;;;;;;6.60;2.70;;;;;;;;;;10089922;23;20019;-85
2023/05/01 07:04:03;;;;;;;6.45;2.05;;;;;;;;;;10106584;23;20023;-89
2023/05/01 07:08:08;;;;;;;7.25;2.35;;;;;;;;;;10091292;23;20022;-91
2023/05/01 07:12:11;;;;;;;6.10;2.30;;;;;;;;;;10097578;23;20029;-91
2023/05/01 07:16:16;;;;;;;4.80;2.13;;;;;;;;;;10100176;23;20089;-94
2023/05/01 07:20:19;;;;;;;6.13;2.20;;;;;;;;;;10112422;23;20149;-94
2023/05/01 07:24:23;;;;;;;4.97;2.40;;;;;;;;;;10096747;23;20022;-92
2023/05/01 07:28:27;;;;;;;4.68;2.20;;;;;;;;;;10092884;23;20453;-92
2023/05/01 07:32:32;;;;;;;4.18;2.28;;;;;;;;;;10095112;23;20023;-93
2023/05/01 07:36:37;;;;;;;6.00;2.20;;;;;;;;;;10105122;23;20026;-88
2023/05/01 07:40:52;;;;;;;4.15;1.98;;;;;;;;;;10071583;23;20050;-89
2023/05/01 07:45:09;;;;;;;5.15;1.65;;;;;;;;;;10100521;23;20392;-89
2023/05/01 07:49:29;;;;;;;6.78;2.72;;;;;;;;;;10100676;23;20026;-90
2023/05/01 07:53:35;;;;;;;4.68;1.95;;;;;;;;;;10083421;23;20038;-89
2023/05/01 07:57:38;;;;;;;4.55;2.17;;;;;;;;;;10085007;23;20019;-89
2023/05/01 08:01:41;;;;;;;4.32;2.20;;;;;;;;;;10086336;23;20459;-90
2023/05/01 08:05:45;;;;;;;6.03;2.20;;;;;;;;;;10085807;23;20026;-89
2023/05/01 08:09:49;;;;;;;6.97;2.20;;;;;;;;;;10084938;23;20050;-89
2023/05/01 08:13:51;;;;;;;2.58;1.73;;;;;;;;;;10059527;23;20065;-89
2023/05/01 08:17:54;;;;;;;4.53;2.10;;;;;;;;;;10085633;23;20026;-90
2023/05/01 08:21:59;;;;;;;4.03;1.98;;;;;;;;;;10086009;23;20031;-89
2023/05/01 08:26:02;;;;;;;6.80;2.05;;;;;;;;;;10083725;23;20029;-91
2023/05/01 08:30:06;;;;;;;5.32;1.90;;;;;;;;;;10084687;23;20095;-92
2023/05/01 08:34:09;;;;;;;4.43;1.98;;;;;;;;;;10083981;23;20036;-89
2023/05/01 08:38:14;;;;;;;4.53;1.80;;;;;;;;;;10084043;23;20081;-90
2023/05/01 08:42:18;;;;;;;5.72;2.53;;;;;;;;;;10085427;23;20423;-89
2023/05/01 08:46:29;;;;;;;5.68;1.92;;;;;;;;;;10087232;23;20026;-91
2023/05/01 08:50:38;;;;;;;4.82;2.00;;;;;;;;;;10111629;23;20067;-90
2023/05/01 08:55:01;;;;;;;3.85;1.88;;;;;;;;;;10070532;23;20026;-91
2023/05/01 08:59:05;;;;;;;5.93;1.95;;;;;;;;;;10111549;23;20023;-92
2023/05/01 09:03:16;;;;;;;5.47;1.95;;;;;;;;;;10097924;23;20022;-94
2023/05/01 09:07:22;;;;;;;5.72;2.08;;;;;;;;;;10064721;23;20078;-90
2023/05/01 09:11:28;;;;;;;4.85;2.10;;;;;;;;;;10102738;23;20082;-92
2023/05/01 09:15:32;;;;;;;6.00;2.72;;;;;;;;;;10091684;23;20023;-94
2023/05/01 09:19:36;;;;;;;4.10;2.00;;;;;;;;;;10096484;23;20026;-91
2023/05/01 09:23:39;;;;;;;4.32;2.05;;;;;;;;;;10098415;23;20022;-88
2023/05/01 09:27:46;;;;;;;6.10;2.20;;;;;;;;;;10093696;23;20047;-91
2023/05/01 09:31:50;;;;;;;4.18;1.83;;;;;;;;;;10116933;23;20434;-93
2023/05/01 09:35:54;;;;;;;4.70;1.83;;;;;;;;;;10094748;23;20046;-93
2023/05/01 09:40:05;;;;;;;11.60;2.30;;;;;;;;;;10087624;23;20220;-89
2023/05/01 09:44:18;;;;;;;5.88;2.13;;;;;;;;;;10089192;23;20019;-89
2023/05/01 09:48:21;;;;;;;3.28;1.80;;;;;;;;;;10103740;23;20390;-89
2023/05/01 09:52:26;;;;;;;3.72;1.70;;;;;;;;;;10088311;23;20023;-89
2023/05/01 09:56:31;;;;;;;5.15;2.15;;;;;;;;;;10088165;23;20022;-91
2023/05/01 10:00:48;;;;;;;3.00;1.70;;;;;;;;;;10090469;23;20132;-89
2023/05/01 10:04:58;;;;;;;4.32;2.05;;;;;;;;;;10108530;23;20455;-88
2023/05/01 10:09:01;;;;;;;5.15;2.00;;;;;;;;;;10108728;23;20089;-89
2023/05/01 10:13:14;;;;;;;4.82;2.25;;;;;;;;;;10092605;23;20025;-90
2023/05/01 10:17:21;;;;;;;4.60;1.98;;;;;;;;;;10109066;23;20019;-90
2023/05/01 10:21:24;;;;;;;3.95;1.80;;;;;;;;;;10092779;23;20030;-90
2023/05/01 10:25:29;;;;;;;4.82;1.77;;;;;;;;;;10094889;23;20044;-90
2023/05/01 10:29:35;;;;;;;4.30;2.10;;;;;;;;;;10092089;23;20022;-90
2023/05/01 10:33:41;;;;;;;3.25;1.80;;;;;;;;;;10108763;23;20029;-91
2023/05/01 10:37:48;;;;;;;5.10;1.98;;;;;;;;;;10107650;23;20353;-89
2023/05/01 10:42:10;;;;;;;3.95;1.83;;;;;;;;;;10108459;23;20033;-90
2023/05/01 10:46:28;;;;;;;;;;;;;;;;;;10108602;23;20108;-89
2023/05/01 10:50:34;;;;;;;7.10;2.70;;;;;;;;;;10092217;23;20004;-90
2023/05/01 10:54:37;;;;;;;5.85;2.00;;;;;;;;;;10107748;23;20053;-90
2023/05/01 10:58:55;;;;;;;6.55;2.25;;;;;;;;;;10092072;23;20519;-89
2023/05/01 11:03:31;;;;;;;4.18;2.22;;;;;;;;;;10089548;23;20034;-91
2023/05/01 11:07:36;;;;;;;4.45;1.90;;;;;;;;;;10091746;23;20448;-91
2023/05/01 11:11:49;;;;;;;5.80;2.25;;;;;;;;;;10091681;23;20359;-90
2023/05/01 11:15:52;;;;;;;3.45;1.95;;;;;;;;;;10092791;23;20022;-90
2023/05/01 11:19:55;;;;;;;2.85;1.90;;;;;;;;;;10092402;23;20042;-90
2023/05/01 11:23:59;;;;;;;4.45;2.05;;;;;;;;;;10091507;23;20018;-90
2023/05/01 11:28:05;;;;;;;4.80;2.03;;;;;;;;;;10091186;23;20097;-90
2023/05/01 11:32:09;;;;;;;5.43;1.90;;;;;;;;;;10107370;23;20351;-89
2023/05/01 11:36:12;;;;;;;4.40;1.73;;;;;;;;;;10091112;23;20022;-91
2023/05/01 11:40:25;;;;;;;4.90;1.92;;;;;;;;;;10091574;23;20062;-90
2023/05/01 11:44:29;;;;;;;4.45;2.17;;;;;;;;;;10107225;23;20034;-90
2023/05/01 11:48:32;;;;;;;4.78;2.20;;;;;;;;;;10090075;23;20025;-90
2023/05/01 11:52:48;;;;;;;3.58;1.88;;;;;;;;;;10090385;23;20032;-90
2023/05/01 11:56:59;;;;;;;3.00;1.88;;;;;;;;;;10107447;23;20343;-90
2023/05/01 12:01:02;;;;;;;5.20;2.22;;;;;;;;;;10101407;23;20053;-91
2023/05/01 12:05:16;;;;;;;4.15;1.95;;;;;;;;;;10090686;23;20455;-90
2023/05/01 12:09:21;;;;;;;26.38;12.82;;;;;;;;;;10090927;23;20018;-90
2023/05/01 12:13:27;;;;;;;4.95;2.00;;;;;;;;;;10092617;23;20343;-90
2023/05/01 12:17:31;;;;;;;7.90;3.10;;;;;;;;;;10109148;23;20022;-91
2023/05/01 12:21:35;;;;;;;5.80;2.67;;;;;;;;;;10093250;23;20022;-90
2023/05/01 12:25:39;;;;;;;3.70;1.95;;;;;;;;;;10094880;23;20072;-90
2023/05/01 12:29:46;;;;;;;3.28;1.75;;;;;;;;;;10091082;23;20097;-90
2023/05/01 12:33:53;;;;;;;5.53;2.22;;;;;;;;;;10107025;23;20058;-90
2023/05/01 12:37:57;;;;;;;9.00;1.90;;;;;;;;;;10107211;23;20514;-90
2023/05/01 12:42:00;;;;;;;3.42;1.90;;;;;;;;;;10090801;23;20022;-90
2023/05/01 12:46:06;;;;;;;4.97;2.20;;;;;;;;;;10091508;23;20042;-89
2023/05/01 12:50:10;;;;;;;4.22;2.45;;;;;;;;;;10065481;23;20029;-90
2023/05/01 12:54:19;;;;;;;3.60;1.83;;;;;;;;;;10091000;23;20029;-90
2023/05/01 12:58:22;;;;;;;3.35;1.90;;;;;;;;;;10090670;23;20102;-90
2023/05/01 13:02:32;;;;;;;4.53;2.00;;;;;;;;;;10095477;23;20067;-90
2023/05/01 13:06:37;;;;;;;4.70;2.47;;;;;;;;;;10118937;23;20022;-89
2023/05/01 13:14:58;;;;;;;23.95;10.90;;;;;;;;;;10119232;23;20018;-90
2023/05/01 13:19:04;;;;;;;30.23;14.68;;;;;;;;;;10095828;23;20023;-90
2023/05/01 13:23:11;;;;;;;5.45;2.40;;;;;;;;;;10094247;23;20529;-90
2023/05/01 13:27:14;;;;;;;3.72;1.85;;;;;;;;;;10093581;23;20380;-91
2023/05/01 13:31:17;;;;;;;6.88;2.28;;;;;;;;;;10093926;23;20022;-90
2023/05/01 13:35:26;;;;;;;5.75;2.60;;;;;;;;;;10094028;23;20023;-91
2023/05/01 13:39:30;;;;;;;5.18;2.38;;;;;;;;;;10109816;23;20025;-90
2023/05/01 13:43:34;;;;;;;5.70;2.45;;;;;;;;;;10094355;23;20030;-91
2023/05/01 13:47:40;;;;;;;7.72;3.55;;;;;;;;;;10093458;23;20340;-91
2023/05/01 13:51:46;;;;;;;6.78;2.63;;;;;;;;;;10109674;23;20023;-90
2023/05/01 13:55:49;;;;;;;6.72;2.60;;;;;;;;;;10111430;23;20325;-91
2023/05/01 13:59:52;;;;;;;3.97;2.03;;;;;;;;;;10096532;23;20018;-90
2023/05/01 14:03:59;;;;;;;4.65;2.17;;;;;;;;;;10109761;23;20101;-91
2023/05/01 14:08:04;;;;;;;5.13;2.22;;;;;;;;;;10109430;23;20347;-90
2023/05/01 14:12:07;;;;;;;5.55;2.05;;;;;;;;;;10093085;23;20046;-91
2023/05/01 14:16:12;;;;;;;3.20;1.83;;;;;;;;;;10093145;23;20046;-90
2023/05/01 14:20:15;;;;;;;7.80;2.03;;;;;;;;;;10092076;23;20732;-91
2023/05/01 14:24:20;;;;;;;4.88;2.20;;;;;;;;;;10090502;23;20041;-90
2023/05/01 14:28:24;;;;;;;4.05;2.05;;;;;;;;;;10086729;23;20023;-89
2023/05/01 14:32:28;;;;;;;3.88;2.10;;;;;;;;;;10087585;23;20022;-91
2023/05/01 14:36:31;;;;;;;5.35;2.10;;;;;;;;;;10086757;23;20065;-90
2023/05/01 14:40:36;;;;;;;2.90;1.88;;;;;;;;;;10086708;23;20105;-90
2023/05/01 14:44:42;;;;;;;5.50;2.30;;;;;;;;;;10073474;23;20052;-91
2023/05/01 14:48:46;;;;;;;4.20;2.10;;;;;;;;;;10104731;23;20044;-91
2023/05/01 14:52:54;;;;;;;4.38;2.22;;;;;;;;;;10085770;23;20038;-90
2023/05/01 14:57:05;;;;;;;13.52;6.38;;;;;;;;;;10103277;23;20125;-90
2023/05/01 15:01:08;;;;;;;5.72;2.40;;;;;;;;;;10096848;23;20045;-92
2023/05/01 15:05:12;;;;;;;5.07;2.33;;;;;;;;;;10059961;23;20053;-89
2023/05/01 15:09:18;;;;;;;5.40;1.90;;;;;;;;;;10084890;23;20018;-91
2023/05/01 15:13:24;;;;;;;3.45;2.13;;;;;;;;;;10099474;23;20053;-88
2023/05/01 15:17:30;;;;;;;5.53;2.30;;;;;;;;;;10099527;23;20022;-88
2023/05/01 15:21:33;;;;;;;8.75;2.55;;;;;;;;;;10082173;23;20028;-89
2023/05/01 15:25:36;;;;;;;5.97;2.60;;;;;;;;;;10082649;23;20367;-87
2023/05/01 15:29:41;;;;;;;5.38;2.42;;;;;;;;;;10083247;23;20034;-88
2023/05/01 15:33:45;;;;;;;6.15;2.20;;;;;;;;;;10100464;23;20018;-87
2023/05/01 15:37:48;;;;;;;4.88;2.20;;;;;;;;;;10084565;23;20026;-89
2023/05/01 15:41:54;;;;;;;5.43;2.50;;;;;;;;;;10084509;23;20558;-90
2023/05/01 15:46:04;;;;;;;6.63;2.22;;;;;;;;;;10100926;23;20086;-89
2023/05/01 15:50:13;;;;;;;3.92;2.17;;;;;;;;;;10059343;23;20080;-88
2023/05/01 15:54:16;;;;;;;6.05;2.67;;;;;;;;;;10058422;23;20086;-88
2023/05/01 15:58:28;;;;;;;3.80;2.25;;;;;;;;;;10082863;23;20026;-88
2023/05/01 16:02:33;;;;;;;11.27;5.38;;;;;;;;;;10092421;23;20101;-91
2023/05/01 16:06:36;;;;;;;6.88;2.17;;;;;;;;;;10087467;23;20022;-91
2023/05/01 16:10:40;;;;;;;4.60;2.10;;;;;;;;;;10085573;23;20033;-91
2023/05/01 16:14:43;;;;;;;3.88;1.95;;;;;;;;;;10084834;23;20053;-92
2023/05/01 16:18:54;;;;;;;4.72;2.13;;;;;;;;;;10060374;23;20030;-91
2023/05/01 16:22:58;;;;;;;;;;;;;;;;;;10103032;23;20034;-91
2023/05/01 16:27:01;;;;;;;6.25;2.20;;;;;;;;;;10061561;23;20241;-90
2023/05/01 16:31:05;;;;;;;3.13;2.10;;;;;;;;;;10085554;23;20134;-91
2023/05/01 16:35:13;;;;;;;13.35;6.13;;;;;;;;;;10061691;23;20055;-91
2023/05/01 16:39:19;;;;;;;11.02;6.88;;;;;;;;;;10089575;23;20030;-91
2023/05/01 16:43:22;;;;;;;7.47;3.80;;;;;;;;;;10104777;23;20384;-90
2023/05/01 16:47:25;;;;;;;5.25;4.00;;;;;;;;;;10061182;23;20457;-90
2023/05/01 16:51:31;;;;;;;4.40;2.35;;;;;;;;;;10088416;23;20684;-90
2023/05/01 16:55:34;;;;;;;4.95;2.40;;;;;;;;;;10088751;23;20667;-91
2023/05/01 16:59:38;;;;;;;3.22;1.88;;;;;;;;;;10088701;23;20538;-91
2023/05/01 17:03:41;;;;;;;6.10;2.20;;;;;;;;;;10040871;23;20581;-90
2023/05/01 17:07:45;;;;;;;3.05;1.95;;;;;;;;;;10041490;23;20027;-90
2023/05/01 17:11:48;;;;;;;6.88;3.08;;;;;;;;;;10039620;23;20026;-90
2023/05/01 17:15:52;;;;;;;6.22;3.45;;;;;;;;;;10038339;23;20444;-90
2023/05/01 17:19:55;;;;;;;9.05;5.70;;;;;;;;;;10039869;23;20508;-90
2023/05/01 17:24:00;;;;;;;5.40;3.08;;;;;;;;;;10040520;23;20029;-89
2023/05/01 17:28:04;;;;;;;9.15;5.97;;;;;;;;;;10039568;23;20085;-89
2023/05/01 17:32:07;;;;;;;32.85;27.92;;;;;;;;;;10039676;23;20391;-89
2023/05/01 17:36:10;;;;;;;12.98;7.65;;;;;;;;;;10039154;23;20027;-90
2023/05/01 17:40:14;;;;;;;7.80;4.28;;;;;;;;;;10042413;23;20025;-89
2023/05/01 17:44:18;;;;;;;7.45;4.78;;;;;;;;;;10038035;23;20050;-88
2023/05/01 17:48:24;;;;;;;9.43;5.50;;;;;;;;;;10038489;23;20046;-91
2023/05/01 17:52:28;;;;;;;17.02;7.85;;;;;;;;;;10055417;23;20030;-90
2023/05/01 17:56:34;;;;;;;24.58;14.73;;;;;;;;;;10042099;23;20159;-89
2023/05/01 18:00:38;;;;;;;10.52;4.68;;;;;;;;;;10050514;23;20026;-90
2023/05/01 18:04:43;;;;;;;7.15;3.20;;;;;;;;;;10088001;23;20023;-90
2023/05/01 18:13:12;;;;;;;7.30;2.92;;;;;;;;;;10101840;23;20022;-88
2023/05/01 18:17:16;;;;;;;;;;;;;;;;;;10086965;23;20023;-89
2023/05/01 18:21:22;;;;;;;15.32;5.82;;;;;;;;;;10086297;23;20431;-89
2023/05/01 18:25:26;;;;;;;11.27;4.80;;;;;;;;;;10103314;23;20030;-89
2023/05/01 18:29:56;;;;;;;17.10;6.15;;;;;;;;;;10060880;23;20022;-90
2023/05/01 18:34:03;;;;;;;10.82;4.82;;;;;;;;;;10103295;23;20022;-90
2023/05/01 18:38:10;;;;;;;16.90;6.25;;;;;;;;;;10085472;23;20030;-90
2023/05/01 18:42:17;;;;;;;11.85;4.18;;;;;;;;;;10102798;23;20101;-89
2023/05/01 18:46:24;;;;;;;8.23;4.32;;;;;;;;;;10103179;23;20113;-90
2023/05/01 18:50:28;;;;;;;21.55;8.52;;;;;;;;;;10087506;23;20352;-89
2023/05/01 18:54:35;;;;;;;22.85;11.27;;;;;;;;;;10087302;23;20025;-89
2023/05/01 18:58:42;;;;;;;51.50;19.58;;;;;;;;;;10102574;23;20688;-89
2023/05/01 19:02:58;;;;;;;23.63;10.65;;;;;;;;;;10090956;23;20449;-89
2023/05/01 19:07:02;;;;;;;18.63;9.20;;;;;;;;;;10090160;23;20037;-89
2023/05/01 19:11:07;;;;;;;12.88;6.15;;;;;;;;;;10090542;23;20037;-89
2023/05/01 19:15:13;;;;;;;12.68;4.60;;;;;;;;;;10107429;23;20022;-88
2023/05/01 19:19:18;;;;;;;18.13;6.43;;;;;;;;;;10091470;23;20348;-89
2023/05/01 19:23:34;;;;;;;21.95;7.50;;;;;;;;;;10107872;23;20066;-89
2023/05/01 19:27:38;;;;;;;18.08;7.38;;;;;;;;;;10107609;23;20115;-88
2023/05/01 19:31:42;;;;;;;23.63;8.40;;;;;;;;;;10091313;23;20019;-89
2023/05/01 19:35:58;;;;;;;21.75;7.82;;;;;;;;;;10065953;23;20031;-90
2023/05/01 19:40:07;;;;;;;14.95;6.28;;;;;;;;;;10065965;23;20027;-90
2023/05/01 19:44:11;;;;;;;25.58;11.75;;;;;;;;;;10065645;23;20468;-88
2023/05/01 19:48:16;;;;;;;26.33;10.05;;;;;;;;;;10090727;23;20097;-90
2023/05/01 19:52:23;;;;;;;20.05;8.98;;;;;;;;;;10091022;23;20018;-91
2023/05/01 19:56:31;;;;;;;16.95;8.35;;;;;;;;;;10065997;23;20026;-88
2023/05/01 20:00:39;;;;;;;14.82;6.45;;;;;;;;;;10091041;23;20477;-89
2023/05/01 20:04:48;;;;;;;23.63;10.57;;;;;;;;;;10108522;23;20026;-89
2023/05/01 20:08:56;;;;;;;19.55;9.35;;;;;;;;;;10108027;23;20018;-87
2023/05/01 20:13:01;;;;;;;27.08;12.13;;;;;;;;;;10106771;23;20028;-88
2023/05/01 20:17:06;;;;;;;23.85;11.48;;;;;;;;;;10091217;23;20022;-88
2023/05/01 20:21:09;;;;;;;12.77;5.88;;;;;;;;;;10090682;23;20022;-90
2023/05/01 20:25:16;;;;;;;11.90;4.60;;;;;;;;;;10090702;23;20070;-89
2023/05/01 20:29:19;;;;;;;11.27;4.38;;;;;;;;;;10106673;23;20079;-88
2023/05/01 20:33:22;;;;;;;10.23;4.60;;;;;;;;;;10090474;23;20022;-88
2023/05/01 20:37:25;;;;;;;14.43;6.85;;;;;;;;;;10090804;23;20347;-88
2023/05/01 20:41:29;;;;;;;10.65;4.65;;;;;;;;;;10090826;23;20347;-88
2023/05/01 20:45:33;;;;;;;10.68;5.55;;;;;;;;;;10090741;23;20025;-87
2023/05/01 20:49:35;;;;;;;12.32;5.55;;;;;;;;;;10090450;23;20022;-88
2023/05/01 20:53:39;;;;;;;14.55;6.18;;;;;;;;;;10065298;23;20041;-88
2023/05/01 20:57:43;;;;;;;16.67;6.90;;;;;;;;;;10090350;23;20022;-88
2023/05/01 21:01:46;;;;;;;11.70;5.40;;;;;;;;;;10090178;23;20057;-87
2023/05/01 21:05:49;;;;;;;13.00;5.90;;;;;;;;;;10090766;23;20030;-89
2023/05/01 21:09:52;;;;;;;19.83;8.23;;;;;;;;;;10090469;23;20046;-88
2023/05/01 21:13:58;;;;;;;20.23;7.43;;;;;;;;;;10090339;23;20022;-88
2023/05/01 21:18:02;;;;;;;14.80;6.93;;;;;;;;;;10106961;23;20029;-89
2023/05/01 21:22:14;;;;;;;13.32;6.13;;;;;;;;;;10090912;23;20045;-87
2023/05/01 21:26:18;;;;;;;13.02;6.05;;;;;;;;;;10108445;23;20110;-86
2023/05/01 21:30:29;;;;;;;14.40;5.60;;;;;;;;;;10093412;23;20022;-91
2023/05/01 21:34:32;;;;;;;12.68;5.70;;;;;;;;;;10110856;23;20412;-90
2023/05/01 21:38:36;;;;;;;12.52;5.63;;;;;;;;;;10094227;23;20023;-90
2023/05/01 21:42:42;;;;;;;23.83;9.32;;;;;;;;;;10094969;23;20110;-91
2023/05/01 21:46:47;;;;;;;16.50;7.07;;;;;;;;;;10069356;23;20026;-91
2023/05/01 21:50:50;;;;;;;17.83;7.05;;;;;;;;;;10093624;23;20027;-91
2023/05/01 21:54:53;;;;;;;15.35;5.60;;;;;;;;;;10094548;23;20022;-90
2023/05/01 21:59:04;;;;;;;18.88;8.35;;;;;;;;;;10095001;23;20363;-90
2023/05/01 22:03:11;;;;;;;17.70;5.80;;;;;;;;;;10085520;23;20041;-89
2023/05/01 22:07:15;;;;;;;12.85;5.45;;;;;;;;;;10109877;23;20055;-89
2023/05/01 22:11:22;;;;;;;8.43;4.55;;;;;;;;;;10093455;23;20022;-91
2023/05/01 22:15:25;;;;;;;9.60;3.97;;;;;;;;;;10093162;23;20436;-90
2023/05/01 22:19:29;;;;;;;11.88;4.32;;;;;;;;;;10093039;23;20041;-90
2023/05/01 22:23:32;;;;;;;10.65;4.57;;;;;;;;;;10093247;23;20018;-90
2023/05/01 22:27:36;;;;;;;7.85;3.50;;;;;;;;;;10092758;23;20042;-90
2023/05/01 22:31:40;;;;;;;10.50;4.20;;;;;;;;;;10091518;23;20034;-90
2023/05/01 22:35:47;;;;;;;10.90;4.18;;;;;;;;;;10092816;23;20022;-90
2023/05/01 22:39:50;;;;;;;8.68;3.47;;;;;;;;;;10091398;23;20443;-91
2023/05/01 22:43:53;;;;;;;8.57;4.30;;;;;;;;;;10092833;23;20029;-90
2023/05/01 22:47:58;;;;;;;6.47;3.33;;;;;;;;;;10092652;23;20018;-90
2023/05/01 22:52:03;;;;;;;7.97;3.60;;;;;;;;;;10093127;23;20106;-90
2023/05/01 22:56:07;;;;;;;8.57;3.38;;;;;;;;;;10092509;23;20071;-91
2023/05/01 23:00:13;;;;;;;7.53;3.17;;;;;;;;;;10092372;23;20355;-91
2023/05/01 23:04:16;;;;;;;6.72;3.58;;;;;;;;;;10092091;23;20026;-90
2023/05/01 23:08:20;;;;;;;10.82;3.20;;;;;;;;;;10092467;23;20022;-90
2023/05/01 23:12:24;;;;;;;6.85;3.63;;;;;;;;;;10092042;23;20029;-91
2023/05/01 23:16:28;;;;;;;9.45;3.25;;;;;;;;;;10067205;23;20538;-89
2023/05/01 23:20:31;;;;;;;10.75;3.53;;;;;;;;;;10092364;23;20050;-91
2023/05/01 23:24:43;;;;;;;7.97;3.50;;;;;;;;;;10067002;23;20348;-89
2023/05/01 23:28:46;;;;;;;7.93;3.60;;;;;;;;;;10107985;23;20034;-90
2023/05/01 23:32:50;;;;;;;12.45;4.32;;;;;;;;;;10066877;23;20097;-90
2023/05/01 23:36:52;;;;;;;6.90;3.40;;;;;;;;;;10092250;23;20026;-91
2023/05/01 23:40:58;;;;;;;10.93;3.08;;;;;;;;;;10092021;23;20475;-90
2023/05/01 23:45:04;;;;;;;6.68;4.10;;;;;;;;;;10107993;23;20445;-91
2023/05/01 23:49:07;;;;;;;9.02;4.10;;;;;;;;;;10091516;23;20045;-90
2023/05/01 23:53:10;;;;;;;9.73;4.30;;;;;;;;;;10091410;23;20050;-89
2023/05/01 23:57:20;;;;;;;7.43;3.58;;;;;;;;;;10066774;23;20045;-89
